sensor_id;sensor_type;location;lat;lon;timestamp;P1;durP1;ratioP1;P2;durP2;ratioP2
69569;SDS011;56781;42.292;23.146;2023-05-29T00:01:45;8.27;;;3.20;;
69569;SDS011;56781;42.292;23.146;2023-05-29T00:04:12;6.53;;;3.40;;
69569;SDS011;56781;42.292;23.146;2023-05-29T00:06:40;6.32;;;3.28;;
69569;SDS011;56781;42.292;23.146;2023-05-29T00:09:07;5.90;;;3.17;;
69569;SDS011;56781;42.292;23.146;2023-05-29T00:11:36;7.10;;;3.13;;
69569;SDS011;56781;42.292;23.146;2023-05-29T00:14:03;6.25;;;3.30;;
69569;SDS011;56781;42.292;23.146;2023-05-29T00:16:30;6.63;;;3.13;;
69569;SDS011;56781;42.292;23.146;2023-05-29T00:19:01;5.07;;;2.90;;
69569;SDS011;56781;42.292;23.146;2023-05-29T00:21:28;7.13;;;2.90;;
69569;SDS011;56781;42.292;23.146;2023-05-29T00:23:55;5.68;;;3.10;;
69569;SDS011;56781;42.292;23.146;2023-05-29T00:26:23;7.13;;;3.30;;
69569;SDS011;56781;42.292;23.146;2023-05-29T00:28:50;7.22;;;3.28;;
69569;SDS011;56781;42.292;23.146;2023-05-29T00:31:17;6.13;;;3.20;;
69569;SDS011;56781;42.292;23.146;2023-05-29T00:33:45;8.20;;;3.63;;
69569;SDS011;56781;42.292;23.146;2023-05-29T00:36:12;7.25;;;3.30;;
69569;SDS011;56781;42.292;23.146;2023-05-29T00:38:39;8.80;;;3.55;;
69569;SDS011;56781;42.292;23.146;2023-05-29T00:41:07;6.95;;;3.25;;
69569;SDS011;56781;42.292;23.146;2023-05-29T00:43:35;12.82;;;3.72;;
69569;SDS011;56781;42.292;23.146;2023-05-29T00:46:02;5.77;;;2.93;;
69569;SDS011;56781;42.292;23.146;2023-05-29T00:48:29;6.60;;;3.28;;
69569;SDS011;56781;42.292;23.146;2023-05-29T00:50:56;6.70;;;3.40;;
69569;SDS011;56781;42.292;23.146;2023-05-29T00:53:24;6.88;;;3.50;;
69569;SDS011;56781;42.292;23.146;2023-05-29T00:55:51;8.05;;;3.90;;
69569;SDS011;56781;42.292;23.146;2023-05-29T00:58:20;8.10;;;3.50;;
69569;SDS011;56781;42.292;23.146;2023-05-29T01:00:48;6.97;;;3.45;;
69569;SDS011;56781;42.292;23.146;2023-05-29T01:03:15;7.95;;;3.58;;
69569;SDS011;56781;42.292;23.146;2023-05-29T01:05:46;8.30;;;3.55;;
69569;SDS011;56781;42.292;23.146;2023-05-29T01:08:14;7.57;;;3.65;;
69569;SDS011;56781;42.292;23.146;2023-05-29T01:10:41;6.80;;;3.33;;
69569;SDS011;56781;42.292;23.146;2023-05-29T01:13:18;6.68;;;3.85;;
69569;SDS011;56781;42.292;23.146;2023-05-29T01:23:40;8.03;;;3.80;;
69569;SDS011;56781;42.292;23.146;2023-05-29T01:26:21;7.32;;;3.72;;
69569;SDS011;56781;42.292;23.146;2023-05-29T01:29:02;8.23;;;4.07;;
69569;SDS011;56781;42.292;23.146;2023-05-29T01:31:32;7.15;;;3.60;;
69569;SDS011;56781;42.292;23.146;2023-05-29T01:34:01;9.35;;;4.05;;
69569;SDS011;56781;42.292;23.146;2023-05-29T01:36:29;9.00;;;3.97;;
69569;SDS011;56781;42.292;23.146;2023-05-29T01:38:57;8.48;;;4.03;;
69569;SDS011;56781;42.292;23.146;2023-05-29T01:41:25;9.27;;;3.95;;
69569;SDS011;56781;42.292;23.146;2023-05-29T01:43:53;8.63;;;4.00;;
69569;SDS011;56781;42.292;23.146;2023-05-29T01:46:22;7.10;;;3.55;;
69569;SDS011;56781;42.292;23.146;2023-05-29T01:48:52;10.23;;;3.83;;
69569;SDS011;56781;42.292;23.146;2023-05-29T01:51:21;7.40;;;4.07;;
69569;SDS011;56781;42.292;23.146;2023-05-29T01:53:49;8.77;;;3.97;;
69569;SDS011;56781;42.292;23.146;2023-05-29T01:56:16;8.20;;;3.88;;
69569;SDS011;56781;42.292;23.146;2023-05-29T01:58:44;6.85;;;4.13;;
69569;SDS011;56781;42.292;23.146;2023-05-29T02:01:12;10.57;;;4.40;;
69569;SDS011;56781;42.292;23.146;2023-05-29T02:03:40;7.35;;;4.25;;
69569;SDS011;56781;42.292;23.146;2023-05-29T02:06:07;7.25;;;4.20;;
69569;SDS011;56781;42.292;23.146;2023-05-29T02:08:34;7.70;;;3.85;;
69569;SDS011;56781;42.292;23.146;2023-05-29T02:11:01;8.45;;;4.70;;
69569;SDS011;56781;42.292;23.146;2023-05-29T02:13:28;9.20;;;4.53;;
69569;SDS011;56781;42.292;23.146;2023-05-29T02:15:56;8.93;;;4.30;;
69569;SDS011;56781;42.292;23.146;2023-05-29T02:18:23;7.88;;;4.00;;
69569;SDS011;56781;42.292;23.146;2023-05-29T02:20:50;9.93;;;5.07;;
69569;SDS011;56781;42.292;23.146;2023-05-29T02:23:18;9.60;;;4.63;;
69569;SDS011;56781;42.292;23.146;2023-05-29T02:25:46;9.23;;;4.30;;
69569;SDS011;56781;42.292;23.146;2023-05-29T02:28:13;7.85;;;4.53;;
69569;SDS011;56781;42.292;23.146;2023-05-29T02:30:41;9.55;;;4.90;;
69569;SDS011;56781;42.292;23.146;2023-05-29T02:33:08;9.68;;;4.50;;
69569;SDS011;56781;42.292;23.146;2023-05-29T02:35:35;7.20;;;4.40;;
69569;SDS011;56781;42.292;23.146;2023-05-29T02:38:03;8.33;;;4.23;;
69569;SDS011;56781;42.292;23.146;2023-05-29T02:40:30;11.05;;;4.25;;
69569;SDS011;56781;42.292;23.146;2023-05-29T02:42:57;9.43;;;4.50;;
69569;SDS011;56781;42.292;23.146;2023-05-29T02:45:24;9.05;;;4.40;;
69569;SDS011;56781;42.292;23.146;2023-05-29T02:47:52;9.23;;;4.43;;
69569;SDS011;56781;42.292;23.146;2023-05-29T02:50:19;8.07;;;4.27;;
69569;SDS011;56781;42.292;23.146;2023-05-29T02:52:46;8.18;;;4.13;;
69569;SDS011;56781;42.292;23.146;2023-05-29T02:55:15;14.05;;;4.75;;
69569;SDS011;56781;42.292;23.146;2023-05-29T02:57:42;9.27;;;4.15;;
69569;SDS011;56781;42.292;23.146;2023-05-29T03:00:09;9.10;;;4.10;;
69569;SDS011;56781;42.292;23.146;2023-05-29T03:02:37;7.70;;;4.20;;
69569;SDS011;56781;42.292;23.146;2023-05-29T03:05:05;9.52;;;4.25;;
69569;SDS011;56781;42.292;23.146;2023-05-29T03:07:33;9.55;;;4.90;;
69569;SDS011;56781;42.292;23.146;2023-05-29T03:10:00;8.75;;;4.78;;
69569;SDS011;56781;42.292;23.146;2023-05-29T03:12:27;12.13;;;5.30;;
69569;SDS011;56781;42.292;23.146;2023-05-29T03:14:54;12.37;;;4.93;;
69569;SDS011;56781;42.292;23.146;2023-05-29T03:17:23;7.75;;;4.47;;
69569;SDS011;56781;42.292;23.146;2023-05-29T03:19:50;9.23;;;4.32;;
69569;SDS011;56781;42.292;23.146;2023-05-29T03:22:17;9.52;;;4.25;;
69569;SDS011;56781;42.292;23.146;2023-05-29T03:24:45;10.00;;;4.70;;
69569;SDS011;56781;42.292;23.146;2023-05-29T03:27:12;11.27;;;5.47;;
69569;SDS011;56781;42.292;23.146;2023-05-29T03:29:39;10.25;;;5.47;;
69569;SDS011;56781;42.292;23.146;2023-05-29T03:32:07;9.90;;;5.60;;
69569;SDS011;56781;42.292;23.146;2023-05-29T03:34:34;9.85;;;5.07;;
69569;SDS011;56781;42.292;23.146;2023-05-29T03:37:01;11.25;;;5.70;;
69569;SDS011;56781;42.292;23.146;2023-05-29T03:39:29;10.77;;;5.20;;
69569;SDS011;56781;42.292;23.146;2023-05-29T03:41:56;10.77;;;5.03;;
69569;SDS011;56781;42.292;23.146;2023-05-29T03:44:24;10.30;;;5.03;;
69569;SDS011;56781;42.292;23.146;2023-05-29T03:46:51;8.00;;;5.00;;
69569;SDS011;56781;42.292;23.146;2023-05-29T03:49:18;12.00;;;5.30;;
69569;SDS011;56781;42.292;23.146;2023-05-29T03:51:45;9.27;;;4.73;;
69569;SDS011;56781;42.292;23.146;2023-05-29T03:54:13;10.07;;;5.72;;
69569;SDS011;56781;42.292;23.146;2023-05-29T03:56:40;27.45;;;16.00;;
69569;SDS011;56781;42.292;23.146;2023-05-29T03:59:07;25.38;;;15.07;;
69569;SDS011;56781;42.292;23.146;2023-05-29T04:01:35;14.40;;;9.05;;
69569;SDS011;56781;42.292;23.146;2023-05-29T04:04:02;11.47;;;7.10;;
69569;SDS011;56781;42.292;23.146;2023-05-29T04:06:30;10.43;;;5.13;;
69569;SDS011;56781;42.292;23.146;2023-05-29T04:08:57;10.15;;;4.70;;
69569;SDS011;56781;42.292;23.146;2023-05-29T04:11:24;9.88;;;5.00;;
69569;SDS011;56781;42.292;23.146;2023-05-29T04:13:51;9.50;;;4.60;;
69569;SDS011;56781;42.292;23.146;2023-05-29T04:16:19;10.77;;;4.83;;
69569;SDS011;56781;42.292;23.146;2023-05-29T04:18:46;10.55;;;4.53;;
69569;SDS011;56781;42.292;23.146;2023-05-29T04:21:13;7.90;;;4.30;;
69569;SDS011;56781;42.292;23.146;2023-05-29T04:23:41;9.77;;;4.93;;
69569;SDS011;56781;42.292;23.146;2023-05-29T04:26:08;9.13;;;4.60;;
69569;SDS011;56781;42.292;23.146;2023-05-29T04:28:35;8.17;;;4.27;;
69569;SDS011;56781;42.292;23.146;2023-05-29T04:31:04;7.35;;;4.25;;
69569;SDS011;56781;42.292;23.146;2023-05-29T04:33:32;7.50;;;4.32;;
69569;SDS011;56781;42.292;23.146;2023-05-29T04:35:59;8.75;;;4.30;;
69569;SDS011;56781;42.292;23.146;2023-05-29T04:38:30;10.02;;;4.28;;
69569;SDS011;56781;42.292;23.146;2023-05-29T04:40:58;6.90;;;3.73;;
69569;SDS011;56781;42.292;23.146;2023-05-29T04:43:25;8.48;;;3.90;;
69569;SDS011;56781;42.292;23.146;2023-05-29T04:45:53;7.85;;;4.15;;
69569;SDS011;56781;42.292;23.146;2023-05-29T04:48:20;6.65;;;3.90;;
69569;SDS011;56781;42.292;23.146;2023-05-29T04:50:47;8.10;;;4.30;;
69569;SDS011;56781;42.292;23.146;2023-05-29T04:53:15;7.43;;;4.00;;
69569;SDS011;56781;42.292;23.146;2023-05-29T04:55:42;9.02;;;4.15;;
69569;SDS011;56781;42.292;23.146;2023-05-29T04:58:10;8.90;;;3.97;;
69569;SDS011;56781;42.292;23.146;2023-05-29T05:00:39;6.72;;;3.72;;
69569;SDS011;56781;42.292;23.146;2023-05-29T05:03:10;8.13;;;3.97;;
69569;SDS011;56781;42.292;23.146;2023-05-29T05:05:37;6.73;;;3.63;;
69569;SDS011;56781;42.292;23.146;2023-05-29T05:08:05;6.40;;;3.80;;
69569;SDS011;56781;42.292;23.146;2023-05-29T05:10:32;5.60;;;3.40;;
69569;SDS011;56781;42.292;23.146;2023-05-29T05:12:59;6.90;;;3.60;;
69569;SDS011;56781;42.292;23.146;2023-05-29T05:15:29;7.28;;;3.92;;
69569;SDS011;56781;42.292;23.146;2023-05-29T05:17:56;7.93;;;4.03;;
69569;SDS011;56781;42.292;23.146;2023-05-29T05:20:23;8.65;;;3.75;;
69569;SDS011;56781;42.292;23.146;2023-05-29T05:22:50;6.55;;;3.58;;
69569;SDS011;56781;42.292;23.146;2023-05-29T05:25:18;10.18;;;3.90;;
69569;SDS011;56781;42.292;23.146;2023-05-29T05:27:45;9.07;;;3.70;;
69569;SDS011;56781;42.292;23.146;2023-05-29T05:30:12;7.13;;;3.60;;
69569;SDS011;56781;42.292;23.146;2023-05-29T05:32:40;10.57;;;4.03;;
69569;SDS011;56781;42.292;23.146;2023-05-29T05:35:07;8.25;;;3.60;;
69569;SDS011;56781;42.292;23.146;2023-05-29T05:37:37;8.73;;;3.60;;
69569;SDS011;56781;42.292;23.146;2023-05-29T05:40:05;6.57;;;3.30;;
69569;SDS011;56781;42.292;23.146;2023-05-29T05:42:33;6.65;;;3.58;;
69569;SDS011;56781;42.292;23.146;2023-05-29T05:45:00;7.40;;;3.38;;
69569;SDS011;56781;42.292;23.146;2023-05-29T05:47:27;7.22;;;3.17;;
69569;SDS011;56781;42.292;23.146;2023-05-29T05:49:55;4.40;;;2.60;;
69569;SDS011;56781;42.292;23.146;2023-05-29T05:52:23;5.35;;;2.95;;
69569;SDS011;56781;42.292;23.146;2023-05-29T05:54:51;7.50;;;3.30;;
69569;SDS011;56781;42.292;23.146;2023-05-29T05:57:18;5.72;;;3.10;;
69569;SDS011;56781;42.292;23.146;2023-05-29T05:59:46;6.13;;;3.00;;
69569;SDS011;56781;42.292;23.146;2023-05-29T06:02:13;5.72;;;2.83;;
69569;SDS011;56781;42.292;23.146;2023-05-29T06:04:40;5.07;;;2.60;;
69569;SDS011;56781;42.292;23.146;2023-05-29T06:07:08;8.75;;;2.85;;
69569;SDS011;56781;42.292;23.146;2023-05-29T06:09:36;5.45;;;2.55;;
69569;SDS011;56781;42.292;23.146;2023-05-29T06:12:04;5.15;;;2.60;;
69569;SDS011;56781;42.292;23.146;2023-05-29T06:14:31;6.00;;;2.67;;
69569;SDS011;56781;42.292;23.146;2023-05-29T06:16:59;7.05;;;2.35;;
69569;SDS011;56781;42.292;23.146;2023-05-29T06:19:27;6.32;;;2.78;;
69569;SDS011;56781;42.292;23.146;2023-05-29T06:21:54;4.88;;;2.50;;
69569;SDS011;56781;42.292;23.146;2023-05-29T06:24:22;4.80;;;2.72;;
69569;SDS011;56781;42.292;23.146;2023-05-29T06:26:49;4.88;;;2.28;;
69569;SDS011;56781;42.292;23.146;2023-05-29T06:29:17;5.25;;;2.65;;
69569;SDS011;56781;42.292;23.146;2023-05-29T06:31:44;6.88;;;2.40;;
69569;SDS011;56781;42.292;23.146;2023-05-29T06:34:11;6.70;;;2.67;;
69569;SDS011;56781;42.292;23.146;2023-05-29T06:36:38;5.85;;;2.50;;
69569;SDS011;56781;42.292;23.146;2023-05-29T06:39:07;3.78;;;2.40;;
69569;SDS011;56781;42.292;23.146;2023-05-29T06:41:34;4.63;;;2.35;;
69569;SDS011;56781;42.292;23.146;2023-05-29T06:44:01;6.20;;;2.53;;
69569;SDS011;56781;42.292;23.146;2023-05-29T06:46:29;5.10;;;2.72;;
69569;SDS011;56781;42.292;23.146;2023-05-29T06:48:57;6.82;;;2.95;;
69569;SDS011;56781;42.292;23.146;2023-05-29T06:51:24;7.10;;;3.05;;
69569;SDS011;56781;42.292;23.146;2023-05-29T06:53:51;5.65;;;3.00;;
69569;SDS011;56781;42.292;23.146;2023-05-29T06:56:18;6.25;;;2.53;;
69569;SDS011;56781;42.292;23.146;2023-05-29T06:58:45;4.93;;;2.13;;
69569;SDS011;56781;42.292;23.146;2023-05-29T07:01:12;6.65;;;2.58;;
69569;SDS011;56781;42.292;23.146;2023-05-29T07:03:40;4.10;;;2.00;;
69569;SDS011;56781;42.292;23.146;2023-05-29T07:06:07;3.70;;;1.88;;
69569;SDS011;56781;42.292;23.146;2023-05-29T07:08:34;3.88;;;2.10;;
69569;SDS011;56781;42.292;23.146;2023-05-29T07:11:02;5.05;;;2.38;;
69569;SDS011;56781;42.292;23.146;2023-05-29T07:13:29;4.07;;;2.00;;
69569;SDS011;56781;42.292;23.146;2023-05-29T07:15:56;4.60;;;2.10;;
69569;SDS011;56781;42.292;23.146;2023-05-29T07:18:23;3.95;;;2.13;;
69569;SDS011;56781;42.292;23.146;2023-05-29T07:20:50;7.35;;;2.15;;
69569;SDS011;56781;42.292;23.146;2023-05-29T07:23:17;4.32;;;2.00;;
69569;SDS011;56781;42.292;23.146;2023-05-29T07:25:44;3.90;;;2.10;;
69569;SDS011;56781;42.292;23.146;2023-05-29T07:28:11;7.55;;;2.30;;
69569;SDS011;56781;42.292;23.146;2023-05-29T07:30:48;4.40;;;2.20;;
69569;SDS011;56781;42.292;23.146;2023-05-29T07:33:15;4.82;;;2.17;;
69569;SDS011;56781;42.292;23.146;2023-05-29T07:35:42;5.45;;;2.38;;
69569;SDS011;56781;42.292;23.146;2023-05-29T07:38:09;4.70;;;2.55;;
69569;SDS011;56781;42.292;23.146;2023-05-29T07:40:37;4.05;;;2.30;;
69569;SDS011;56781;42.292;23.146;2023-05-29T07:43:07;4.57;;;2.22;;
69569;SDS011;56781;42.292;23.146;2023-05-29T07:45:34;4.13;;;2.60;;
69569;SDS011;56781;42.292;23.146;2023-05-29T07:48:01;4.47;;;2.30;;
69569;SDS011;56781;42.292;23.146;2023-05-29T07:50:29;5.95;;;2.40;;
69569;SDS011;56781;42.292;23.146;2023-05-29T07:52:56;6.18;;;2.30;;
69569;SDS011;56781;42.292;23.146;2023-05-29T07:55:23;4.57;;;2.45;;
69569;SDS011;56781;42.292;23.146;2023-05-29T07:57:51;4.03;;;2.22;;
69569;SDS011;56781;42.292;23.146;2023-05-29T08:00:18;5.18;;;2.65;;
69569;SDS011;56781;42.292;23.146;2023-05-29T08:02:45;5.70;;;2.67;;
69569;SDS011;56781;42.292;23.146;2023-05-29T08:05:13;5.13;;;2.55;;
69569;SDS011;56781;42.292;23.146;2023-05-29T08:07:40;5.78;;;2.10;;
69569;SDS011;56781;42.292;23.146;2023-05-29T08:10:07;4.95;;;2.70;;
69569;SDS011;56781;42.292;23.146;2023-05-29T08:12:35;5.57;;;2.38;;
69569;SDS011;56781;42.292;23.146;2023-05-29T08:15:02;5.07;;;2.67;;
69569;SDS011;56781;42.292;23.146;2023-05-29T08:17:30;6.30;;;2.60;;
69569;SDS011;56781;42.292;23.146;2023-05-29T08:19:57;4.47;;;2.25;;
69569;SDS011;56781;42.292;23.146;2023-05-29T08:22:28;5.80;;;2.50;;
69569;SDS011;56781;42.292;23.146;2023-05-29T08:24:56;5.00;;;2.40;;
69569;SDS011;56781;42.292;23.146;2023-05-29T08:27:23;4.63;;;2.20;;
69569;SDS011;56781;42.292;23.146;2023-05-29T08:29:50;7.20;;;2.40;;
69569;SDS011;56781;42.292;23.146;2023-05-29T08:32:17;6.05;;;2.40;;
69569;SDS011;56781;42.292;23.146;2023-05-29T08:34:45;4.90;;;1.95;;
69569;SDS011;56781;42.292;23.146;2023-05-29T08:37:12;5.78;;;2.40;;
69569;SDS011;56781;42.292;23.146;2023-05-29T08:39:40;4.82;;;2.22;;
69569;SDS011;56781;42.292;23.146;2023-05-29T08:42:08;4.10;;;2.40;;
69569;SDS011;56781;42.292;23.146;2023-05-29T08:44:39;5.55;;;2.70;;
69569;SDS011;56781;42.292;23.146;2023-05-29T08:47:07;7.25;;;3.13;;
69569;SDS011;56781;42.292;23.146;2023-05-29T08:49:40;6.13;;;2.60;;
69569;SDS011;56781;42.292;23.146;2023-05-29T08:52:11;5.85;;;2.30;;
69569;SDS011;56781;42.292;23.146;2023-05-29T08:54:42;4.50;;;2.30;;
69569;SDS011;56781;42.292;23.146;2023-05-29T08:57:10;4.68;;;2.58;;
69569;SDS011;56781;42.292;23.146;2023-05-29T08:59:39;3.83;;;2.38;;
69569;SDS011;56781;42.292;23.146;2023-05-29T09:02:09;4.05;;;2.20;;
69569;SDS011;56781;42.292;23.146;2023-05-29T09:04:38;5.43;;;2.10;;
69569;SDS011;56781;42.292;23.146;2023-05-29T09:07:07;6.25;;;2.40;;
69569;SDS011;56781;42.292;23.146;2023-05-29T09:09:35;4.80;;;2.90;;
69569;SDS011;56781;42.292;23.146;2023-05-29T09:12:03;5.47;;;2.35;;
69569;SDS011;56781;42.292;23.146;2023-05-29T09:14:31;4.40;;;2.10;;
69569;SDS011;56781;42.292;23.146;2023-05-29T09:17:01;4.30;;;2.42;;
69569;SDS011;56781;42.292;23.146;2023-05-29T09:19:33;5.50;;;2.40;;
69569;SDS011;56781;42.292;23.146;2023-05-29T09:24:33;4.07;;;2.42;;
69569;SDS011;56781;42.292;23.146;2023-05-29T09:27:01;5.15;;;2.45;;
69569;SDS011;56781;42.292;23.146;2023-05-29T09:29:31;6.07;;;2.50;;
69569;SDS011;56781;42.292;23.146;2023-05-29T09:31:59;4.75;;;2.10;;
69569;SDS011;56781;42.292;23.146;2023-05-29T09:34:30;4.47;;;2.15;;
69569;SDS011;56781;42.292;23.146;2023-05-29T09:37:04;5.47;;;2.40;;
69569;SDS011;56781;42.292;23.146;2023-05-29T09:42:14;5.05;;;2.50;;
69569;SDS011;56781;42.292;23.146;2023-05-29T09:44:48;7.20;;;2.75;;
69569;SDS011;56781;42.292;23.146;2023-05-29T09:47:21;4.38;;;2.30;;
69569;SDS011;56781;42.292;23.146;2023-05-29T09:49:49;6.05;;;2.33;;
69569;SDS011;56781;42.292;23.146;2023-05-29T09:52:20;5.05;;;2.42;;
69569;SDS011;56781;42.292;23.146;2023-05-29T09:54:48;9.07;;;3.15;;
69569;SDS011;56781;42.292;23.146;2023-05-29T09:57:17;9.00;;;2.80;;
69569;SDS011;56781;42.292;23.146;2023-05-29T09:59:44;5.65;;;2.50;;
69569;SDS011;56781;42.292;23.146;2023-05-29T10:02:15;6.45;;;2.47;;
69569;SDS011;56781;42.292;23.146;2023-05-29T10:04:42;7.28;;;2.67;;
69569;SDS011;56781;42.292;23.146;2023-05-29T10:07:20;4.80;;;2.25;;
69569;SDS011;56781;42.292;23.146;2023-05-29T10:09:54;8.50;;;2.47;;
69569;SDS011;56781;42.292;23.146;2023-05-29T10:12:29;4.93;;;2.45;;
69569;SDS011;56781;42.292;23.146;2023-05-29T10:15:12;4.88;;;2.40;;
69569;SDS011;56781;42.292;23.146;2023-05-29T10:17:57;6.20;;;2.40;;
69569;SDS011;56781;42.292;23.146;2023-05-29T10:20:31;5.20;;;2.30;;
69569;SDS011;56781;42.292;23.146;2023-05-29T10:23:01;5.93;;;2.30;;
69569;SDS011;56781;42.292;23.146;2023-05-29T10:25:29;5.00;;;2.25;;
69569;SDS011;56781;42.292;23.146;2023-05-29T10:27:59;5.45;;;2.40;;
69569;SDS011;56781;42.292;23.146;2023-05-29T10:36:12;7.70;;;2.58;;
69569;SDS011;56781;42.292;23.146;2023-05-29T10:38:45;6.60;;;2.55;;
69569;SDS011;56781;42.292;23.146;2023-05-29T10:43:56;4.10;;;2.10;;
69569;SDS011;56781;42.292;23.146;2023-05-29T10:49:18;6.82;;;2.70;;
69569;SDS011;56781;42.292;23.146;2023-05-29T10:51:46;5.38;;;2.60;;
69569;SDS011;56781;42.292;23.146;2023-05-29T10:54:24;8.18;;;2.60;;
69569;SDS011;56781;42.292;23.146;2023-05-29T10:56:53;4.55;;;2.70;;
69569;SDS011;56781;42.292;23.146;2023-05-29T10:59:23;6.38;;;2.40;;
69569;SDS011;56781;42.292;23.146;2023-05-29T11:01:54;4.80;;;2.13;;
69569;SDS011;56781;42.292;23.146;2023-05-29T11:06:53;4.88;;;2.40;;
69569;SDS011;56781;42.292;23.146;2023-05-29T11:12:11;4.22;;;1.85;;
69569;SDS011;56781;42.292;23.146;2023-05-29T11:15:06;6.25;;;2.10;;
69569;SDS011;56781;42.292;23.146;2023-05-29T11:20:08;3.72;;;1.85;;
69569;SDS011;56781;42.292;23.146;2023-05-29T11:25:25;4.82;;;2.20;;
69569;SDS011;56781;42.292;23.146;2023-05-29T11:27:52;6.05;;;2.15;;
69569;SDS011;56781;42.292;23.146;2023-05-29T11:30:20;5.45;;;2.63;;
69569;SDS011;56781;42.292;23.146;2023-05-29T11:32:48;5.15;;;1.80;;
69569;SDS011;56781;42.292;23.146;2023-05-29T11:35:19;5.07;;;2.00;;
69569;SDS011;56781;42.292;23.146;2023-05-29T11:37:49;6.43;;;2.10;;
69569;SDS011;56781;42.292;23.146;2023-05-29T11:40:17;4.47;;;2.10;;
69569;SDS011;56781;42.292;23.146;2023-05-29T11:42:45;4.60;;;2.05;;
69569;SDS011;56781;42.292;23.146;2023-05-29T11:45:16;6.18;;;2.30;;
69569;SDS011;56781;42.292;23.146;2023-05-29T11:47:55;4.32;;;2.15;;
69569;SDS011;56781;42.292;23.146;2023-05-29T11:50:28;6.78;;;2.13;;
69569;SDS011;56781;42.292;23.146;2023-05-29T11:52:57;5.55;;;1.88;;
69569;SDS011;56781;42.292;23.146;2023-05-29T11:55:26;4.13;;;2.20;;
69569;SDS011;56781;42.292;23.146;2023-05-29T11:57:58;5.10;;;2.00;;
69569;SDS011;56781;42.292;23.146;2023-05-29T12:00:30;4.90;;;2.08;;
69569;SDS011;56781;42.292;23.146;2023-05-29T12:02:59;5.30;;;2.50;;
69569;SDS011;56781;42.292;23.146;2023-05-29T12:05:31;4.10;;;1.90;;
69569;SDS011;56781;42.292;23.146;2023-05-29T12:08:11;3.85;;;1.80;;
69569;SDS011;56781;42.292;23.146;2023-05-29T12:10:45;6.20;;;2.10;;
69569;SDS011;56781;42.292;23.146;2023-05-29T12:13:19;3.90;;;2.10;;
69569;SDS011;56781;42.292;23.146;2023-05-29T12:15:47;5.47;;;2.03;;
69569;SDS011;56781;42.292;23.146;2023-05-29T12:18:16;5.85;;;2.22;;
69569;SDS011;56781;42.292;23.146;2023-05-29T12:20:43;4.15;;;2.30;;
69569;SDS011;56781;42.292;23.146;2023-05-29T12:23:11;5.35;;;2.20;;
69569;SDS011;56781;42.292;23.146;2023-05-29T12:25:38;5.68;;;2.60;;
69569;SDS011;56781;42.292;23.146;2023-05-29T12:28:06;3.90;;;2.47;;
69569;SDS011;56781;42.292;23.146;2023-05-29T12:30:37;5.97;;;2.20;;
69569;SDS011;56781;42.292;23.146;2023-05-29T12:33:05;4.68;;;2.10;;
69569;SDS011;56781;42.292;23.146;2023-05-29T12:35:33;4.72;;;2.03;;
69569;SDS011;56781;42.292;23.146;2023-05-29T12:38:01;6.10;;;1.77;;
69569;SDS011;56781;42.292;23.146;2023-05-29T12:40:31;4.10;;;1.90;;
69569;SDS011;56781;42.292;23.146;2023-05-29T12:43:01;5.45;;;1.83;;
69569;SDS011;56781;42.292;23.146;2023-05-29T12:45:30;4.47;;;2.00;;
69569;SDS011;56781;42.292;23.146;2023-05-29T12:47:59;5.70;;;2.30;;
69569;SDS011;56781;42.292;23.146;2023-05-29T12:50:28;5.00;;;1.77;;
69569;SDS011;56781;42.292;23.146;2023-05-29T12:52:58;4.85;;;1.80;;
69569;SDS011;56781;42.292;23.146;2023-05-29T12:55:26;5.15;;;1.90;;
69569;SDS011;56781;42.292;23.146;2023-05-29T12:58:00;4.10;;;1.90;;
69569;SDS011;56781;42.292;23.146;2023-05-29T13:00:27;3.85;;;2.05;;
69569;SDS011;56781;42.292;23.146;2023-05-29T13:02:54;4.57;;;1.63;;
69569;SDS011;56781;42.292;23.146;2023-05-29T13:05:22;4.05;;;1.83;;
69569;SDS011;56781;42.292;23.146;2023-05-29T13:07:52;5.70;;;2.17;;
69569;SDS011;56781;42.292;23.146;2023-05-29T13:10:19;4.60;;;2.20;;
69569;SDS011;56781;42.292;23.146;2023-05-29T13:12:52;3.88;;;1.90;;
69569;SDS011;56781;42.292;23.146;2023-05-29T13:15:22;4.78;;;2.10;;
69569;SDS011;56781;42.292;23.146;2023-05-29T13:17:49;4.13;;;2.00;;
69569;SDS011;56781;42.292;23.146;2023-05-29T13:20:17;4.05;;;1.90;;
69569;SDS011;56781;42.292;23.146;2023-05-29T13:22:46;4.30;;;2.30;;
69569;SDS011;56781;42.292;23.146;2023-05-29T13:25:14;3.45;;;1.70;;
69569;SDS011;56781;42.292;23.146;2023-05-29T13:27:44;3.63;;;1.80;;
69569;SDS011;56781;42.292;23.146;2023-05-29T13:30:13;3.97;;;2.00;;
69569;SDS011;56781;42.292;23.146;2023-05-29T13:32:41;5.28;;;2.30;;
69569;SDS011;56781;42.292;23.146;2023-05-29T13:35:09;3.60;;;2.17;;
69569;SDS011;56781;42.292;23.146;2023-05-29T13:37:37;4.38;;;2.30;;
69569;SDS011;56781;42.292;23.146;2023-05-29T13:40:05;6.55;;;2.80;;
69569;SDS011;56781;42.292;23.146;2023-05-29T13:42:33;4.47;;;2.30;;
69569;SDS011;56781;42.292;23.146;2023-05-29T13:45:02;6.07;;;2.30;;
69569;SDS011;56781;42.292;23.146;2023-05-29T13:47:30;5.80;;;2.28;;
69569;SDS011;56781;42.292;23.146;2023-05-29T13:49:59;4.00;;;2.00;;
69569;SDS011;56781;42.292;23.146;2023-05-29T13:52:26;5.22;;;2.38;;
69569;SDS011;56781;42.292;23.146;2023-05-29T13:54:54;5.82;;;2.38;;
69569;SDS011;56781;42.292;23.146;2023-05-29T13:57:21;6.38;;;2.42;;
69569;SDS011;56781;42.292;23.146;2023-05-29T13:59:48;5.68;;;2.40;;
69569;SDS011;56781;42.292;23.146;2023-05-29T14:02:16;6.95;;;2.50;;
69569;SDS011;56781;42.292;23.146;2023-05-29T14:04:43;8.63;;;2.55;;
69569;SDS011;56781;42.292;23.146;2023-05-29T14:07:10;3.97;;;1.88;;
69569;SDS011;56781;42.292;23.146;2023-05-29T14:09:38;7.72;;;2.72;;
69569;SDS011;56781;42.292;23.146;2023-05-29T14:12:05;4.32;;;1.90;;
69569;SDS011;56781;42.292;23.146;2023-05-29T14:14:33;5.03;;;2.00;;
69569;SDS011;56781;42.292;23.146;2023-05-29T14:17:01;4.57;;;2.10;;
69569;SDS011;56781;42.292;23.146;2023-05-29T14:19:30;5.72;;;1.80;;
69569;SDS011;56781;42.292;23.146;2023-05-29T14:21:57;5.43;;;1.70;;
69569;SDS011;56781;42.292;23.146;2023-05-29T14:24:26;5.22;;;2.17;;
69569;SDS011;56781;42.292;23.146;2023-05-29T14:26:53;5.15;;;2.13;;
69569;SDS011;56781;42.292;23.146;2023-05-29T14:29:21;6.68;;;2.25;;
69569;SDS011;56781;42.292;23.146;2023-05-29T14:31:48;3.67;;;1.58;;
69569;SDS011;56781;42.292;23.146;2023-05-29T14:34:16;3.42;;;1.40;;
69569;SDS011;56781;42.292;23.146;2023-05-29T14:36:43;3.67;;;1.60;;
69569;SDS011;56781;42.292;23.146;2023-05-29T14:39:11;4.88;;;1.50;;
69569;SDS011;56781;42.292;23.146;2023-05-29T14:41:41;5.65;;;1.50;;
69569;SDS011;56781;42.292;23.146;2023-05-29T14:44:09;3.58;;;1.60;;
69569;SDS011;56781;42.292;23.146;2023-05-29T14:46:38;3.90;;;1.48;;
69569;SDS011;56781;42.292;23.146;2023-05-29T14:49:05;5.03;;;1.90;;
69569;SDS011;56781;42.292;23.146;2023-05-29T14:51:32;4.72;;;1.70;;
69569;SDS011;56781;42.292;23.146;2023-05-29T14:54:00;3.97;;;1.33;;
69569;SDS011;56781;42.292;23.146;2023-05-29T14:56:27;3.05;;;1.23;;
69569;SDS011;56781;42.292;23.146;2023-05-29T14:58:54;4.70;;;1.40;;
69569;SDS011;56781;42.292;23.146;2023-05-29T15:01:22;3.92;;;1.60;;
69569;SDS011;56781;42.292;23.146;2023-05-29T15:03:49;6.70;;;1.40;;
69569;SDS011;56781;42.292;23.146;2023-05-29T15:06:17;4.00;;;1.50;;
69569;SDS011;56781;42.292;23.146;2023-05-29T15:08:45;3.33;;;1.40;;
69569;SDS011;56781;42.292;23.146;2023-05-29T15:11:12;3.28;;;1.30;;
69569;SDS011;56781;42.292;23.146;2023-05-29T15:13:41;3.90;;;1.30;;
69569;SDS011;56781;42.292;23.146;2023-05-29T15:16:09;5.20;;;1.30;;